sensor_id;sensor_type;location;lat;lon;timestamp;pressure;altitude;pressure_sealevel;temperature;humidity
12951;BME280;6540;50.858;7.232;2023-05-02T00:02:12;51753.69;;;-142.34;28.46
12951;BME280;6540;50.858;7.232;2023-05-02T00:04:37;51753.69;;;-142.34;28.68
12951;BME280;6540;50.858;7.232;2023-05-02T00:07:03;51741.56;;;-142.34;28.39
12951;BME280;6540;50.858;7.232;2023-05-02T00:09:28;51735.53;;;-142.34;28.29
12951;BME280;6540;50.858;7.232;2023-05-02T00:11:54;51757.72;;;-142.34;28.19
12951;BME280;6540;50.858;7.232;2023-05-02T00:14:19;51783.94;;;-142.34;27.86
12951;BME280;6540;50.858;7.232;2023-05-02T00:16:44;51715.34;;;-142.34;27.87
12951;BME280;6540;50.858;7.232;2023-05-02T00:19:10;51727.44;;;-142.34;27.57
12951;BME280;6540;50.858;7.232;2023-05-02T00:21:38;51757.72;;;-142.34;27.79
12951;BME280;6540;50.858;7.232;2023-05-02T00:24:04;51721.41;;;-142.34;27.73
12951;BME280;6540;50.858;7.232;2023-05-02T00:26:29;51725.44;;;-142.34;27.51
12951;BME280;6540;50.858;7.232;2023-05-02T00:28:58;51725.44;;;-142.34;28.67
12951;BME280;6540;50.858;7.232;2023-05-02T00:31:23;51751.66;;;-142.34;29.00
12951;BME280;6540;50.858;7.232;2023-05-02T00:33:48;51761.75;;;-142.34;28.23
12951;BME280;6540;50.858;7.232;2023-05-02T00:36:15;51761.75;;;-142.34;28.95
12951;BME280;6540;50.858;7.232;2023-05-02T00:38:40;51757.72;;;-142.34;27.60
12951;BME280;6540;50.858;7.232;2023-05-02T00:41:06;51737.53;;;-142.34;27.46
12951;BME280;6540;50.858;7.232;2023-05-02T00:43:31;51741.56;;;-142.34;27.49
12951;BME280;6540;50.858;7.232;2023-05-02T00:45:57;51749.66;;;-142.34;27.63
12951;BME280;6540;50.858;7.232;2023-05-02T00:48:24;51717.38;;;-142.34;27.63
12951;BME280;6540;50.858;7.232;2023-05-02T00:50:50;51711.31;;;-142.34;27.49
12951;BME280;6540;50.858;7.232;2023-05-02T00:53:15;51739.56;;;-142.34;27.51
12951;BME280;6540;50.858;7.232;2023-05-02T00:55:40;51735.53;;;-142.34;27.59
12951;BME280;6540;50.858;7.232;2023-05-02T00:58:10;51729.47;;;-142.34;27.68
12951;BME280;6540;50.858;7.232;2023-05-02T01:03:19;51731.50;;;-142.34;28.46
12951;BME280;6540;50.858;7.232;2023-05-02T01:06:03;51739.56;;;-142.34;28.02
12951;BME280;6540;50.858;7.232;2023-05-02T01:08:51;51741.56;;;-142.34;27.49
12951;BME280;6540;50.858;7.232;2023-05-02T01:11:43;51745.59;;;-142.34;27.83
12951;BME280;6540;50.858;7.232;2023-05-02T01:14:13;51753.69;;;-142.34;27.50
12951;BME280;6540;50.858;7.232;2023-05-02T01:16:40;51713.34;;;-142.34;27.85
12951;BME280;6540;50.858;7.232;2023-05-02T01:19:11;51733.50;;;-142.34;27.34
12951;BME280;6540;50.858;7.232;2023-05-02T01:21:39;51737.53;;;-142.34;27.75
12951;BME280;6540;50.858;7.232;2023-05-02T01:24:11;51683.06;;;-142.34;27.30
12951;BME280;6540;50.858;7.232;2023-05-02T01:26:53;51713.34;;;-142.34;27.42
12951;BME280;6540;50.858;7.232;2023-05-02T01:29:23;51753.69;;;-142.34;27.57
12951;BME280;6540;50.858;7.232;2023-05-02T01:31:53;51753.69;;;-142.34;27.76
12951;BME280;6540;50.858;7.232;2023-05-02T01:34:21;51745.59;;;-142.34;27.90
12951;BME280;6540;50.858;7.232;2023-05-02T01:36:49;51737.53;;;-142.34;27.78
12951;BME280;6540;50.858;7.232;2023-05-02T01:39:18;51721.41;;;-142.34;27.54
12951;BME280;6540;50.858;7.232;2023-05-02T01:41:45;51743.59;;;-142.34;28.18
12951;BME280;6540;50.858;7.232;2023-05-02T01:44:13;51723.41;;;-142.34;27.63
12951;BME280;6540;50.858;7.232;2023-05-02T01:46:42;51733.50;;;-142.34;27.79
12951;BME280;6540;50.858;7.232;2023-05-02T01:49:08;51743.59;;;-142.34;27.57
12951;BME280;6540;50.858;7.232;2023-05-02T01:51:36;51723.41;;;-142.34;27.74
12951;BME280;6540;50.858;7.232;2023-05-02T01:54:06;51733.50;;;-142.34;28.51
12951;BME280;6540;50.858;7.232;2023-05-02T01:56:35;51777.88;;;-142.34;28.85
12951;BME280;6540;50.858;7.232;2023-05-02T01:59:04;51755.69;;;-142.34;28.75
12951;BME280;6540;50.858;7.232;2023-05-02T02:01:30;51755.69;;;-142.34;28.88
12951;BME280;6540;50.858;7.232;2023-05-02T02:03:56;51733.50;;;-142.34;27.88
12951;BME280;6540;50.858;7.232;2023-05-02T02:06:23;51741.56;;;-142.34;28.27
12951;BME280;6540;50.858;7.232;2023-05-02T02:08:49;51745.59;;;-142.34;28.24
12951;BME280;6540;50.858;7.232;2023-05-02T02:11:17;51767.81;;;-142.34;28.29
12951;BME280;6540;50.858;7.232;2023-05-02T02:13:54;51725.44;;;-142.34;28.01
12951;BME280;6540;50.858;7.232;2023-05-02T02:16:24;51743.59;;;-142.34;27.77
12951;BME280;6540;50.858;7.232;2023-05-02T02:18:55;51757.72;;;-142.34;28.24
12951;BME280;6540;50.858;7.232;2023-05-02T02:21:22;51731.50;;;-142.34;28.16
12951;BME280;6540;50.858;7.232;2023-05-02T02:23:50;51725.44;;;-142.34;28.04
12951;BME280;6540;50.858;7.232;2023-05-02T02:26:19;51725.44;;;-142.34;27.78
12951;BME280;6540;50.858;7.232;2023-05-02T02:28:45;51721.41;;;-142.34;28.02
12951;BME280;6540;50.858;7.232;2023-05-02T02:31:12;51705.25;;;-142.34;28.02
12951;BME280;6540;50.858;7.232;2023-05-02T02:33:37;51741.56;;;-142.34;28.12
12951;BME280;6540;50.858;7.232;2023-05-02T02:36:13;51749.66;;;-142.34;27.97
12951;BME280;6540;50.858;7.232;2023-05-02T02:38:53;51759.72;;;-142.34;27.97
12951;BME280;6540;50.858;7.232;2023-05-02T02:41:34;51705.25;;;-142.34;28.40
12951;BME280;6540;50.858;7.232;2023-05-02T02:44:11;51707.28;;;-142.34;28.27
12951;BME280;6540;50.858;7.232;2023-05-02T02:49:37;51755.69;;;-142.34;28.19
12951;BME280;6540;50.858;7.232;2023-05-02T02:52:34;51733.50;;;-142.34;28.31
12951;BME280;6540;50.858;7.232;2023-05-02T02:55:16;51745.59;;;-142.34;28.79
12951;BME280;6540;50.858;7.232;2023-05-02T02:57:58;51741.56;;;-142.34;28.15
12951;BME280;6540;50.858;7.232;2023-05-02T03:00:26;51743.59;;;-142.34;28.29
12951;BME280;6540;50.858;7.232;2023-05-02T03:02:52;51749.66;;;-142.34;28.15
12951;BME280;6540;50.858;7.232;2023-05-02T03:05:20;51739.56;;;-142.34;28.27
12951;BME280;6540;50.858;7.232;2023-05-02T03:07:46;51725.44;;;-142.34;28.60
12951;BME280;6540;50.858;7.232;2023-05-02T03:10:11;51713.34;;;-142.34;28.83
12951;BME280;6540;50.858;7.232;2023-05-02T03:12:37;51745.59;;;-142.34;28.20
12951;BME280;6540;50.858;7.232;2023-05-02T03:17:52;51731.50;;;-142.34;28.43
12951;BME280;6540;50.858;7.232;2023-05-02T03:20:17;51741.56;;;-142.34;29.47
12951;BME280;6540;50.858;7.232;2023-05-02T03:22:43;51743.59;;;-142.34;28.64
12951;BME280;6540;50.858;7.232;2023-05-02T03:25:08;51751.66;;;-142.34;28.97
12951;BME280;6540;50.858;7.232;2023-05-02T03:27:34;51749.66;;;-142.34;30.47
12951;BME280;6540;50.858;7.232;2023-05-02T03:29:59;51751.66;;;-142.34;28.76
12951;BME280;6540;50.858;7.232;2023-05-02T03:32:24;51735.53;;;-142.34;28.63
12951;BME280;6540;50.858;7.232;2023-05-02T03:34:50;51757.72;;;-142.34;30.00
12951;BME280;6540;50.858;7.232;2023-05-02T03:37:16;51753.69;;;-142.34;28.38
12951;BME280;6540;50.858;7.232;2023-05-02T03:39:41;51721.41;;;-142.34;28.54
12951;BME280;6540;50.858;7.232;2023-05-02T03:42:08;51741.56;;;-142.34;28.56
12951;BME280;6540;50.858;7.232;2023-05-02T03:44:33;51735.53;;;-142.34;27.90
12951;BME280;6540;50.858;7.232;2023-05-02T03:46:58;51749.66;;;-142.34;29.48
12951;BME280;6540;50.858;7.232;2023-05-02T03:49:24;51769.81;;;-142.34;28.72
12951;BME280;6540;50.858;7.232;2023-05-02T03:51:49;51757.72;;;-142.34;29.29
12951;BME280;6540;50.858;7.232;2023-05-02T03:54:14;51735.53;;;-142.34;28.22
12951;BME280;6540;50.858;7.232;2023-05-02T03:56:40;51729.47;;;-142.34;28.38
12951;BME280;6540;50.858;7.232;2023-05-02T03:59:05;51701.22;;;-142.34;28.00
12951;BME280;6540;50.858;7.232;2023-05-02T04:01:30;51741.56;;;-142.34;28.32
12951;BME280;6540;50.858;7.232;2023-05-02T04:03:56;51719.38;;;-142.34;28.07
12951;BME280;6540;50.858;7.232;2023-05-02T04:06:21;51741.56;;;-142.34;27.99
12951;BME280;6540;50.858;7.232;2023-05-02T04:08:47;51725.44;;;-142.34;28.82
12951;BME280;6540;50.858;7.232;2023-05-02T04:11:13;51735.53;;;-142.34;28.19
12951;BME280;6540;50.858;7.232;2023-05-02T04:13:39;51717.38;;;-142.34;28.07
12951;BME280;6540;50.858;7.232;2023-05-02T04:16:04;51693.16;;;-142.34;28.25
12951;BME280;6540;50.858;7.232;2023-05-02T04:18:30;51739.56;;;-142.34;28.00
12951;BME280;6540;50.858;7.232;2023-05-02T04:20:55;51721.41;;;-142.34;28.02
12951;BME280;6540;50.858;7.232;2023-05-02T04:23:21;51727.44;;;-142.34;28.15
12951;BME280;6540;50.858;7.232;2023-05-02T04:25:53;51701.22;;;-142.34;28.42
12951;BME280;6540;50.858;7.232;2023-05-02T04:28:20;51713.34;;;-142.34;28.04
12951;BME280;6540;50.858;7.232;2023-05-02T04:30:49;51721.41;;;-142.34;27.80
12951;BME280;6540;50.858;7.232;2023-05-02T04:33:15;51717.38;;;-142.34;28.19
12951;BME280;6540;50.858;7.232;2023-05-02T04:35:42;51725.44;;;-142.34;27.82
12951;BME280;6540;50.858;7.232;2023-05-02T04:38:08;51717.38;;;-142.34;27.93
12951;BME280;6540;50.858;7.232;2023-05-02T04:40:33;51761.75;;;-142.34;28.59
12951;BME280;6540;50.858;7.232;2023-05-02T04:42:59;51741.56;;;-142.34;29.02
12951;BME280;6540;50.858;7.232;2023-05-02T04:45:24;51721.41;;;-142.34;28.43
12951;BME280;6540;50.858;7.232;2023-05-02T04:48:02;51685.09;;;-142.34;27.76
12951;BME280;6540;50.858;7.232;2023-05-02T04:50:28;51709.31;;;-142.34;28.27
12951;BME280;6540;50.858;7.232;2023-05-02T04:52:54;51713.34;;;-142.34;28.10
12951;BME280;6540;50.858;7.232;2023-05-02T04:55:19;51723.41;;;-142.34;28.07
12951;BME280;6540;50.858;7.232;2023-05-02T04:57:44;51668.97;;;-142.34;28.00
12951;BME280;6540;50.858;7.232;2023-05-02T05:00:10;51697.19;;;-142.34;28.20
12951;BME280;6540;50.858;7.232;2023-05-02T05:02:36;51693.16;;;-142.34;28.38
12951;BME280;6540;50.858;7.232;2023-05-02T05:05:03;51697.19;;;-142.34;28.18
12951;BME280;6540;50.858;7.232;2023-05-02T05:07:28;51725.44;;;-142.34;28.22
12951;BME280;6540;50.858;7.232;2023-05-02T05:09:53;51715.34;;;-142.34;28.25
12951;BME280;6540;50.858;7.232;2023-05-02T05:12:19;51729.47;;;-142.34;28.49
12951;BME280;6540;50.858;7.232;2023-05-02T05:14:44;51717.38;;;-142.34;28.30
12951;BME280;6540;50.858;7.232;2023-05-02T05:17:09;51683.06;;;-142.34;27.92
12951;BME280;6540;50.858;7.232;2023-05-02T05:19:35;51715.34;;;-142.34;28.00
12951;BME280;6540;50.858;7.232;2023-05-02T05:22:00;51717.38;;;-142.34;28.22
12951;BME280;6540;50.858;7.232;2023-05-02T05:24:25;51705.25;;;-142.34;28.02
12951;BME280;6540;50.858;7.232;2023-05-02T05:26:51;51707.28;;;-142.34;27.76
12951;BME280;6540;50.858;7.232;2023-05-02T05:29:16;51721.41;;;-142.34;27.45
12951;BME280;6540;50.858;7.232;2023-05-02T05:31:43;51697.19;;;-142.34;27.94
12951;BME280;6540;50.858;7.232;2023-05-02T05:34:08;51727.44;;;-142.34;27.54
12951;BME280;6540;50.858;7.232;2023-05-02T05:36:34;51689.13;;;-142.34;27.74
12951;BME280;6540;50.858;7.232;2023-05-02T05:38:59;51717.38;;;-142.34;27.66
12951;BME280;6540;50.858;7.232;2023-05-02T05:41:25;51693.16;;;-142.34;27.53
12951;BME280;6540;50.858;7.232;2023-05-02T05:43:50;51701.22;;;-142.34;27.78
12951;BME280;6540;50.858;7.232;2023-05-02T05:46:16;51717.38;;;-142.34;28.12
12951;BME280;6540;50.858;7.232;2023-05-02T05:48:41;51715.34;;;-142.34;27.80
12951;BME280;6540;50.858;7.232;2023-05-02T05:51:06;51689.13;;;-142.34;27.87
12951;BME280;6540;50.858;7.232;2023-05-02T05:53:32;51681.06;;;-142.34;27.84
12951;BME280;6540;50.858;7.232;2023-05-02T05:55:58;51721.41;;;-142.34;27.85
12951;BME280;6540;50.858;7.232;2023-05-02T05:58:23;51719.38;;;-142.34;27.88
12951;BME280;6540;50.858;7.232;2023-05-02T06:00:49;51687.09;;;-142.34;27.72
12951;BME280;6540;50.858;7.232;2023-05-02T06:03:14;51693.16;;;-142.34;27.78
12951;BME280;6540;50.858;7.232;2023-05-02T06:05:40;51707.28;;;-142.34;28.00
12951;BME280;6540;50.858;7.232;2023-05-02T06:08:05;51681.06;;;-142.34;28.25
12951;BME280;6540;50.858;7.232;2023-05-02T06:10:31;51723.41;;;-142.34;27.96
12951;BME280;6540;50.858;7.232;2023-05-02T06:12:56;51713.34;;;-142.34;28.83
12951;BME280;6540;50.858;7.232;2023-05-02T06:15:22;51725.44;;;-142.34;30.06
12951;BME280;6540;50.858;7.232;2023-05-02T06:17:49;51725.44;;;-142.34;28.36
12951;BME280;6540;50.858;7.232;2023-05-02T06:20:15;51685.09;;;-142.34;28.07
12951;BME280;6540;50.858;7.232;2023-05-02T06:22:41;51666.94;;;-142.34;28.01
12951;BME280;6540;50.858;7.232;2023-05-02T06:25:07;51737.53;;;-142.34;30.60
12951;BME280;6540;50.858;7.232;2023-05-02T06:27:33;51719.38;;;-142.34;28.58
12951;BME280;6540;50.858;7.232;2023-05-02T06:29:59;51689.13;;;-142.34;27.88
12951;BME280;6540;50.858;7.232;2023-05-02T06:32:24;51721.41;;;-142.34;28.58
12951;BME280;6540;50.858;7.232;2023-05-02T06:34:50;51693.16;;;-142.34;28.36
12951;BME280;6540;50.858;7.232;2023-05-02T06:37:16;51703.25;;;-142.34;27.94
12951;BME280;6540;50.858;7.232;2023-05-02T06:39:41;51715.34;;;-142.34;27.98
12951;BME280;6540;50.858;7.232;2023-05-02T06:42:06;51693.16;;;-142.34;28.53
12951;BME280;6540;50.858;7.232;2023-05-02T06:44:32;51697.19;;;-142.34;29.24
12951;BME280;6540;50.858;7.232;2023-05-02T06:46:57;51761.75;;;-142.34;28.68
12951;BME280;6540;50.858;7.232;2023-05-02T06:49:22;51707.28;;;-142.34;29.02
12951;BME280;6540;50.858;7.232;2023-05-02T06:51:51;51749.66;;;-142.34;29.18
12951;BME280;6540;50.858;7.232;2023-05-02T06:54:16;51719.38;;;-142.34;28.57
12951;BME280;6540;50.858;7.232;2023-05-02T06:56:42;51717.38;;;-142.34;28.44
12951;BME280;6540;50.858;7.232;2023-05-02T06:59:07;51753.69;;;-142.34;29.65
12951;BME280;6540;50.858;7.232;2023-05-02T07:01:33;51741.56;;;-142.34;30.00
12951;BME280;6540;50.858;7.232;2023-05-02T07:03:59;51727.44;;;-142.34;29.56
12951;BME280;6540;50.858;7.232;2023-05-02T07:06:25;51731.50;;;-142.34;29.15
12951;BME280;6540;50.858;7.232;2023-05-02T07:08:51;51707.28;;;-142.34;29.17
12951;BME280;6540;50.858;7.232;2023-05-02T07:11:16;51689.13;;;-142.34;29.05
12951;BME280;6540;50.858;7.232;2023-05-02T07:13:42;51737.53;;;-142.34;29.28
12951;BME280;6540;50.858;7.232;2023-05-02T07:16:07;51749.66;;;-142.34;31.74
12951;BME280;6540;50.858;7.232;2023-05-02T07:18:32;51739.56;;;-142.34;30.03
12951;BME280;6540;50.858;7.232;2023-05-02T07:20:58;51737.53;;;-142.34;30.09
12951;BME280;6540;50.858;7.232;2023-05-02T07:23:25;51757.72;;;-142.34;29.02
12951;BME280;6540;50.858;7.232;2023-05-02T07:25:50;51747.63;;;-142.34;28.56
12951;BME280;6540;50.858;7.232;2023-05-02T07:28:16;51745.59;;;-142.34;29.78
12951;BME280;6540;50.858;7.232;2023-05-02T07:30:41;51745.59;;;-142.34;29.51
12951;BME280;6540;50.858;7.232;2023-05-02T07:33:07;51711.31;;;-142.34;28.77
12951;BME280;6540;50.858;7.232;2023-05-02T07:35:32;51741.56;;;-142.34;29.02
12951;BME280;6540;50.858;7.232;2023-05-02T07:37:57;51725.44;;;-142.34;28.85
12951;BME280;6540;50.858;7.232;2023-05-02T07:40:23;51729.47;;;-142.34;29.38
12951;BME280;6540;50.858;7.232;2023-05-02T07:42:48;51747.63;;;-142.34;28.78
12951;BME280;6540;50.858;7.232;2023-05-02T07:45:15;51741.56;;;-142.34;30.90
12951;BME280;6540;50.858;7.232;2023-05-02T07:47:40;51707.28;;;-142.34;29.16
12951;BME280;6540;50.858;7.232;2023-05-02T07:50:06;51749.66;;;-142.34;30.05
12951;BME280;6540;50.858;7.232;2023-05-02T07:52:31;51737.53;;;-142.34;29.92
12951;BME280;6540;50.858;7.232;2023-05-02T07:54:57;51794.03;;;-142.34;30.36
12951;BME280;6540;50.858;7.232;2023-05-02T07:57:22;51747.63;;;-142.34;29.43
12951;BME280;6540;50.858;7.232;2023-05-02T07:59:48;51747.63;;;-142.34;31.60
12951;BME280;6540;50.858;7.232;2023-05-02T08:02:13;51737.53;;;-142.34;29.48
12951;BME280;6540;50.858;7.232;2023-05-02T08:04:39;51701.22;;;-142.34;29.05
12951;BME280;6540;50.858;7.232;2023-05-02T08:07:05;51769.81;;;-142.34;31.21
12951;BME280;6540;50.858;7.232;2023-05-02T08:09:30;51713.34;;;-142.34;30.00
12951;BME280;6540;50.858;7.232;2023-05-02T08:11:56;51735.53;;;-142.34;28.94
12951;BME280;6540;50.858;7.232;2023-05-02T08:14:21;51733.50;;;-142.34;29.64
12951;BME280;6540;50.858;7.232;2023-05-02T08:16:47;51731.50;;;-142.34;28.79
12951;BME280;6540;50.858;7.232;2023-05-02T08:19:13;51687.09;;;-142.34;28.93
12951;BME280;6540;50.858;7.232;2023-05-02T08:21:38;51725.44;;;-142.34;30.14
12951;BME280;6540;50.858;7.232;2023-05-02T08:24:04;51769.81;;;-142.34;29.41
12951;BME280;6540;50.858;7.232;2023-05-02T08:26:29;51695.19;;;-142.34;28.27
12951;BME280;6540;50.858;7.232;2023-05-02T08:28:55;51683.06;;;-142.34;28.27
12951;BME280;6540;50.858;7.232;2023-05-02T08:31:20;51673.00;;;-142.34;27.36
12951;BME280;6540;50.858;7.232;2023-05-02T08:33:46;51664.91;;;-142.34;28.51
12951;BME280;6540;50.858;7.232;2023-05-02T08:36:16;51693.16;;;-142.34;28.42
12951;BME280;6540;50.858;7.232;2023-05-02T08:38:42;51721.41;;;-142.34;28.87
12951;BME280;6540;50.858;7.232;2023-05-02T08:41:11;51713.34;;;-142.34;27.22
12951;BME280;6540;50.858;7.232;2023-05-02T08:43:39;51693.16;;;-142.34;27.59
12951;BME280;6540;50.858;7.232;2023-05-02T08:46:06;51681.06;;;-142.34;27.32
12951;BME280;6540;50.858;7.232;2023-05-02T08:48:35;51701.22;;;-142.34;27.32
12951;BME280;6540;50.858;7.232;2023-05-02T08:51:02;51721.41;;;-142.34;28.41
12951;BME280;6540;50.858;7.232;2023-05-02T08:53:32;51693.16;;;-142.34;27.84
12951;BME280;6540;50.858;7.232;2023-05-02T08:55:58;51733.50;;;-142.34;29.02
12951;BME280;6540;50.858;7.232;2023-05-02T08:58:24;51695.19;;;-142.34;27.48
12951;BME280;6540;50.858;7.232;2023-05-02T09:00:51;51705.25;;;-142.34;28.77
12951;BME280;6540;50.858;7.232;2023-05-02T09:03:34;51701.22;;;-142.34;28.85
12951;BME280;6540;50.858;7.232;2023-05-02T09:08:28;51693.16;;;-142.34;27.62
12951;BME280;6540;50.858;7.232;2023-05-02T09:13:57;51711.31;;;-142.34;27.92
12951;BME280;6540;50.858;7.232;2023-05-02T09:16:37;51679.03;;;-142.34;27.07
12951;BME280;6540;50.858;7.232;2023-05-02T09:19:02;51681.06;;;-142.34;27.48
12951;BME280;6540;50.858;7.232;2023-05-02T09:21:36;51717.38;;;-142.34;26.92
12951;BME280;6540;50.858;7.232;2023-05-02T09:24:14;51660.88;;;-142.34;26.39
12951;BME280;6540;50.858;7.232;2023-05-02T09:26:40;51697.19;;;-142.34;28.41
12951;BME280;6540;50.858;7.232;2023-05-02T09:29:06;51717.38;;;-142.34;27.33
12951;BME280;6540;50.858;7.232;2023-05-02T09:31:33;51727.44;;;-142.34;26.96
12951;BME280;6540;50.858;7.232;2023-05-02T09:34:11;51691.16;;;-142.34;26.35
12951;BME280;6540;50.858;7.232;2023-05-02T09:36:42;51721.41;;;-142.34;28.21
12951;BME280;6540;50.858;7.232;2023-05-02T09:39:10;51699.22;;;-142.34;26.85
12951;BME280;6540;50.858;7.232;2023-05-02T09:41:39;51685.09;;;-142.34;27.66
12951;BME280;6540;50.858;7.232;2023-05-02T09:44:08;51681.06;;;-142.34;27.51
12951;BME280;6540;50.858;7.232;2023-05-02T09:46:44;51695.19;;;-142.34;27.22
12951;BME280;6540;50.858;7.232;2023-05-02T09:49:10;51683.06;;;-142.34;26.91
12951;BME280;6540;50.858;7.232;2023-05-02T09:51:36;51729.47;;;-142.34;27.52
12951;BME280;6540;50.858;7.232;2023-05-02T09:54:02;51743.59;;;-142.34;27.92
12951;BME280;6540;50.858;7.232;2023-05-02T09:56:28;51703.25;;;-142.34;26.93
12951;BME280;6540;50.858;7.232;2023-05-02T09:59:26;51731.50;;;-142.34;28.94
12951;BME280;6540;50.858;7.232;2023-05-02T10:01:59;51729.47;;;-142.34;27.81
12951;BME280;6540;50.858;7.232;2023-05-02T10:04:26;51711.31;;;-142.34;27.22
12951;BME280;6540;50.858;7.232;2023-05-02T10:06:52;51729.47;;;-142.34;28.15
12951;BME280;6540;50.858;7.232;2023-05-02T10:09:19;51777.88;;;-142.34;29.65
12951;BME280;6540;50.858;7.232;2023-05-02T10:11:46;51761.75;;;-142.34;28.49
12951;BME280;6540;50.858;7.232;2023-05-02T10:14:15;51717.38;;;-142.34;27.32
12951;BME280;6540;50.858;7.232;2023-05-02T10:17:08;51725.44;;;-142.34;27.83
12951;BME280;6540;50.858;7.232;2023-05-02T10:19:41;51666.94;;;-142.34;26.66
12951;BME280;6540;50.858;7.232;2023-05-02T10:22:08;51721.41;;;-142.34;27.29
12951;BME280;6540;50.858;7.232;2023-05-02T10:24:34;51693.16;;;-142.34;27.40
12951;BME280;6540;50.858;7.232;2023-05-02T10:27:01;51701.22;;;-142.34;27.04
12951;BME280;6540;50.858;7.232;2023-05-02T10:29:29;51681.06;;;-142.34;25.99
12951;BME280;6540;50.858;7.232;2023-05-02T10:31:56;51719.38;;;-142.34;28.09
12951;BME280;6540;50.858;7.232;2023-05-02T10:34:22;51673.00;;;-142.34;26.47
12951;BME280;6540;50.858;7.232;2023-05-02T10:36:48;51670.97;;;-142.34;26.05
12951;BME280;6540;50.858;7.232;2023-05-02T10:39:13;51713.34;;;-142.34;26.73
12951;BME280;6540;50.858;7.232;2023-05-02T10:41:40;51707.28;;;-142.34;27.58
12951;BME280;6540;50.858;7.232;2023-05-02T10:44:05;51733.50;;;-142.34;27.51
12951;BME280;6540;50.858;7.232;2023-05-02T10:46:39;51737.53;;;-142.34;26.26
12951;BME280;6540;50.858;7.232;2023-05-02T10:49:10;51721.41;;;-142.34;27.66
12951;BME280;6540;50.858;7.232;2023-05-02T10:51:38;51701.22;;;-142.34;27.04
12951;BME280;6540;50.858;7.232;2023-05-02T10:59:39;51691.16;;;-142.34;26.02
12951;BME280;6540;50.858;7.232;2023-05-02T11:05:02;51717.38;;;-142.34;26.78
12951;BME280;6540;50.858;7.232;2023-05-02T11:07:33;51727.44;;;-142.34;27.41
12951;BME280;6540;50.858;7.232;2023-05-02T11:12:42;51673.00;;;-142.34;25.96
12951;BME280;6540;50.858;7.232;2023-05-02T11:15:10;51691.16;;;-142.34;26.25
12951;BME280;6540;50.858;7.232;2023-05-02T11:18:01;51648.78;;;-142.34;25.21
12951;BME280;6540;50.858;7.232;2023-05-02T11:20:27;51705.25;;;-142.34;25.14
12951;BME280;6540;50.858;7.232;2023-05-02T11:22:54;51693.16;;;-142.34;26.35
12951;BME280;6540;50.858;7.232;2023-05-02T11:25:31;51699.22;;;-142.34;25.49
12951;BME280;6540;50.858;7.232;2023-05-02T11:27:57;51729.47;;;-142.34;26.40
12951;BME280;6540;50.858;7.232;2023-05-02T11:30:48;51729.47;;;-142.34;25.99
12951;BME280;6540;50.858;7.232;2023-05-02T11:33:15;51701.22;;;-142.34;26.00
12951;BME280;6540;50.858;7.232;2023-05-02T11:35:42;51713.34;;;-142.34;26.28
12951;BME280;6540;50.858;7.232;2023-05-02T11:38:13;51689.13;;;-142.34;26.65
12951;BME280;6540;50.858;7.232;2023-05-02T11:40:39;51713.34;;;-142.34;26.26
12951;BME280;6540;50.858;7.232;2023-05-02T11:43:16;51727.44;;;-142.34;27.74
12951;BME280;6540;50.858;7.232;2023-05-02T11:45:42;51673.00;;;-142.34;26.18
12951;BME280;6540;50.858;7.232;2023-05-02T11:48:08;51711.31;;;-142.34;28.11
12951;BME280;6540;50.858;7.232;2023-05-02T11:50:48;51721.41;;;-142.34;26.44
12951;BME280;6540;50.858;7.232;2023-05-02T11:53:16;51725.44;;;-142.34;28.87
12951;BME280;6540;50.858;7.232;2023-05-02T11:55:47;51717.38;;;-142.34;29.17
12951;BME280;6540;50.858;7.232;2023-05-02T11:58:31;51741.56;;;-142.34;28.54
12951;BME280;6540;50.858;7.232;2023-05-02T12:00:58;51765.78;;;-142.34;29.32
12951;BME280;6540;50.858;7.232;2023-05-02T12:03:28;51781.91;;;-142.34;27.11
12951;BME280;6540;50.858;7.232;2023-05-02T12:05:55;51735.53;;;-142.34;27.32
12951;BME280;6540;50.858;7.232;2023-05-02T12:08:25;51777.88;;;-142.34;26.90
12951;BME280;6540;50.858;7.232;2023-05-02T12:10:52;51717.38;;;-142.34;26.65
12951;BME280;6540;50.858;7.232;2023-05-02T12:13:19;51737.53;;;-142.34;26.99
12951;BME280;6540;50.858;7.232;2023-05-02T12:15:44;51717.38;;;-142.34;27.39
12951;BME280;6540;50.858;7.232;2023-05-02T12:18:11;51733.50;;;-142.34;28.33
12951;BME280;6540;50.858;7.232;2023-05-02T12:20:37;51703.25;;;-142.34;26.12
12951;BME280;6540;50.858;7.232;2023-05-02T12:23:04;51689.13;;;-142.34;25.90
12951;BME280;6540;50.858;7.232;2023-05-02T12:25:31;51656.84;;;-142.34;25.56
12951;BME280;6540;50.858;7.232;2023-05-02T12:28:00;51705.25;;;-142.34;25.57
12951;BME280;6540;50.858;7.232;2023-05-02T12:30:27;51658.88;;;-142.34;24.68
12951;BME280;6540;50.858;7.232;2023-05-02T12:32:57;51713.34;;;-142.34;26.39
12951;BME280;6540;50.858;7.232;2023-05-02T12:35:23;51679.03;;;-142.34;26.15
12951;BME280;6540;50.858;7.232;2023-05-02T12:37:48;51727.44;;;-142.34;26.04
12951;BME280;6540;50.858;7.232;2023-05-02T12:40:15;51685.09;;;-142.34;25.61
12951;BME280;6540;50.858;7.232;2023-05-02T12:42:57;51677.03;;;-142.34;25.34
12951;BME280;6540;50.858;7.232;2023-05-02T12:45:23;51695.19;;;-142.34;25.14
12951;BME280;6540;50.858;7.232;2023-05-02T12:47:49;51691.16;;;-142.34;25.05
12951;BME280;6540;50.858;7.232;2023-05-02T12:50:14;51687.09;;;-142.34;24.67
12951;BME280;6540;50.858;7.232;2023-05-02T12:52:51;51697.19;;;-142.34;25.65
12951;BME280;6540;50.858;7.232;2023-05-02T12:55:24;51668.97;;;-142.34;24.96
12951;BME280;6540;50.858;7.232;2023-05-02T13:00:27;51670.97;;;-142.34;25.08
12951;BME280;6540;50.858;7.232;2023-05-02T13:02:52;51658.88;;;-142.34;24.85
12951;BME280;6540;50.858;7.232;2023-05-02T13:05:18;51648.78;;;-142.34;25.63
12951;BME280;6540;50.858;7.232;2023-05-02T13:07:44;51697.19;;;-142.34;25.80
12951;BME280;6540;50.858;7.232;2023-05-02T13:10:10;51723.41;;;-142.34;24.80
12951;BME280;6540;50.858;7.232;2023-05-02T13:12:36;51670.97;;;-142.34;26.08
12951;BME280;6540;50.858;7.232;2023-05-02T13:15:07;51705.25;;;-142.34;25.48
12951;BME280;6540;50.858;7.232;2023-05-02T13:17:33;51697.19;;;-142.34;26.35
12951;BME280;6540;50.858;7.232;2023-05-02T13:19:59;51733.50;;;-142.34;26.02
12951;BME280;6540;50.858;7.232;2023-05-02T13:22:24;51685.09;;;-142.34;25.80